Time;durP1;ratioP1;P1;durP2;ratioP2;P2;SDS_P1;SDS_P2;PMS_P1;PMS_P2;Temp;Humidity;BMP_temperature;BMP_pressure;BME280_temperature;BME280_humidity;BME280_pressure;Samples;Min_cycle;Max_cycle;Signal;HPM_P1;HPM_P2
2022/09/17 00:00:46;;;;;;;3.90;1.80;;;;;;;;;;110216;1250;36645;-32
2022/09/17 00:03:32;;;;;;;3.90;2.10;;;;;;;;;;110224;1250;37094;-31
2022/09/17 00:06:06;;;;;;;3.70;1.90;;;;;;;;;;110167;1249;36316;-31
2022/09/17 00:08:41;;;;;;;3.40;1.80;;;;;;;;;;110203;1250;36648;-31
2022/09/17 00:11:14;;;;;;;3.20;1.70;;;;;;;;;;110191;1249;36224;-31
2022/09/17 00:13:45;;;;;;;3.50;1.90;;;;;;;;;;110237;1250;36654;-31
2022/09/17 00:16:24;;;;;;;3.50;1.70;;;;;;;;;;110199;1250;36681;-31
2022/09/17 00:18:55;;;;;;;3.50;1.90;;;;;;;;;;110228;1250;36315;-31
2022/09/17 00:21:27;;;;;;;3.70;1.80;;;;;;;;;;110215;1250;36250;-31
2022/09/17 00:23:59;;;;;;;3.20;1.60;;;;;;;;;;110243;1250;36680;-31
2022/09/17 00:26:31;;;;;;;4.00;1.80;;;;;;;;;;110185;1250;34067;-31
2022/09/17 00:29:02;;;;;;;4.10;1.80;;;;;;;;;;110212;1249;36313;-31
2022/09/17 00:31:33;;;;;;;3.60;1.70;;;;;;;;;;110217;1250;34863;-31
2022/09/17 00:34:05;;;;;;;4.00;1.70;;;;;;;;;;110223;1250;36585;-31
2022/09/17 00:36:38;;;;;;;3.40;1.90;;;;;;;;;;110185;1250;33703;-31
2022/09/17 00:39:11;;;;;;;3.70;1.70;;;;;;;;;;110209;1250;36699;-31
2022/09/17 00:41:42;;;;;;;4.10;1.70;;;;;;;;;;110216;1250;36812;-31
2022/09/17 00:44:48;;;;;;;3.80;1.60;;;;;;;;;;110227;1249;36969;-31
2022/09/17 00:47:32;;;;;;;3.80;1.90;;;;;;;;;;110181;1250;36869;-31
2022/09/17 00:50:10;;;;;;;4.20;1.90;;;;;;;;;;110223;1249;33978;-31
2022/09/17 00:52:43;;;;;;;3.10;1.50;;;;;;;;;;110224;1250;34423;-31
2022/09/17 00:55:16;;;;;;;;;;;;;;;;;;110252;1249;36560;-32
2022/09/17 00:57:48;;;;;;;3.60;1.70;;;;;;;;;;110242;1250;36450;-31
2022/09/17 01:00:21;;;;;;;3.30;1.50;;;;;;;;;;110226;1249;34001;-32
2022/09/17 01:02:53;;;;;;;3.30;1.60;;;;;;;;;;110222;1249;36694;-31
2022/09/17 01:05:31;;;;;;;3.40;1.50;;;;;;;;;;110234;1250;36326;-31
2022/09/17 01:08:08;;;;;;;3.50;1.50;;;;;;;;;;110155;1250;42106;-31
2022/09/17 01:10:59;;;;;;;3.30;1.60;;;;;;;;;;110222;1250;36780;-31
2022/09/17 01:13:38;;;;;;;3.80;1.80;;;;;;;;;;110180;1250;34147;-31
2022/09/17 01:16:15;;;;;;;3.40;1.70;;;;;;;;;;110183;1250;34451;-32
2022/09/17 01:19:02;;;;;;;4.00;1.70;;;;;;;;;;110220;1250;36335;-32
2022/09/17 01:21:45;;;;;;;3.20;1.70;;;;;;;;;;110255;1250;36406;-32
2022/09/17 01:24:52;;;;;;;3.00;1.50;;;;;;;;;;110240;1249;36313;-31
2022/09/17 01:28:11;;;;;;;3.50;1.60;;;;;;;;;;110166;1249;36212;-32
2022/09/17 01:30:59;;;;;;;4.40;1.80;;;;;;;;;;109473;1256;34226;-32
2022/09/17 01:33:38;;;;;;;3.80;1.70;;;;;;;;;;110204;1249;34253;-32
2022/09/17 01:36:22;;;;;;;3.20;1.50;;;;;;;;;;110198;1250;36313;-31
2022/09/17 01:39:03;;;;;;;3.00;1.40;;;;;;;;;;110130;1249;39474;-32
2022/09/17 01:41:41;;;;;;;3.40;1.50;;;;;;;;;;110105;1251;36685;-32
2022/09/17 01:44:21;;;;;;;3.60;1.70;;;;;;;;;;110207;1249;34736;-32
2022/09/17 01:46:56;;;;;;;3.50;1.60;;;;;;;;;;110166;1249;36744;-32
2022/09/17 01:49:30;;;;;;;3.50;1.70;;;;;;;;;;110227;1249;42344;-32
2022/09/17 01:52:02;;;;;;;3.40;1.90;;;;;;;;;;110231;1249;36224;-32
2022/09/17 01:54:37;;;;;;;3.20;1.50;;;;;;;;;;110207;1250;36473;-32
2022/09/17 01:57:13;;;;;;;3.00;1.60;;;;;;;;;;110203;1250;36697;-32
2022/09/17 01:59:49;;;;;;;2.90;1.30;;;;;;;;;;110208;1250;34459;-31
2022/09/17 02:02:25;;;;;;;3.20;1.30;;;;;;;;;;110222;1250;36275;-31
2022/09/17 02:05:02;;;;;;;3.70;1.80;;;;;;;;;;110217;1249;36260;-31
2022/09/17 02:07:38;;;;;;;3.40;1.50;;;;;;;;;;110171;1249;36223;-31
2022/09/17 02:10:13;;;;;;;3.30;1.60;;;;;;;;;;110240;1249;36460;-31
2022/09/17 02:12:50;;;;;;;3.40;1.50;;;;;;;;;;110246;1249;34707;-31
2022/09/17 02:15:25;;;;;;;3.20;1.50;;;;;;;;;;110244;1249;36735;-31
2022/09/17 02:18:00;;;;;;;2.90;1.40;;;;;;;;;;110188;1250;36824;-32
2022/09/17 02:20:43;;;;;;;3.50;1.60;;;;;;;;;;110265;1249;36237;-32
2022/09/17 02:23:20;;;;;;;3.10;1.40;;;;;;;;;;110231;1250;36694;-31
2022/09/17 02:26:02;;;;;;;3.30;1.40;;;;;;;;;;110216;1250;34410;-31
2022/09/17 02:28:40;;;;;;;3.70;1.50;;;;;;;;;;110221;1249;37820;-31
2022/09/17 02:31:12;;;;;;;2.90;1.20;;;;;;;;;;110219;1249;36312;-31
2022/09/17 02:33:47;;;;;;;3.00;1.40;;;;;;;;;;110233;1250;36546;-31
2022/09/17 02:36:18;;;;;;;3.10;1.50;;;;;;;;;;110208;1249;36623;-31
2022/09/17 02:38:55;;;;;;;3.30;1.50;;;;;;;;;;110173;1250;37941;-31
2022/09/17 02:41:37;;;;;;;3.50;1.60;;;;;;;;;;110241;1250;36423;-32
2022/09/17 02:44:18;;;;;;;3.10;1.40;;;;;;;;;;110214;1250;36885;-31
2022/09/17 02:47:03;;;;;;;4.90;1.70;;;;;;;;;;110218;1250;36635;-31
2022/09/17 02:49:52;;;;;;;3.30;1.40;;;;;;;;;;110156;1250;36793;-32
2022/09/17 02:52:31;;;;;;;3.30;1.40;;;;;;;;;;110212;1250;36355;-32
2022/09/17 02:55:12;;;;;;;4.00;1.60;;;;;;;;;;110232;1250;36572;-32
2022/09/17 02:57:51;;;;;;;3.30;1.40;;;;;;;;;;110225;1250;34974;-32
2022/09/17 03:00:25;;;;;;;3.00;1.40;;;;;;;;;;110162;1250;36599;-32
2022/09/17 03:03:00;;;;;;;3.80;1.30;;;;;;;;;;110210;1250;36812;-32
2022/09/17 03:05:32;;;;;;;2.90;1.30;;;;;;;;;;110223;1250;36050;-32
2022/09/17 05:37:32;;;;;;;2.70;1.30;;;;;;;;;;106982;1286;569059;-35
2022/09/17 05:40:04;;;;;;;4.20;1.90;;;;;;;;;;109765;1257;36630;-35
2022/09/17 05:42:35;;;;;;;3.40;1.40;;;;;;;;;;109730;1257;36712;-35
2022/09/17 05:45:08;;;;;;;3.40;1.30;;;;;;;;;;109690;1257;35020;-35
2022/09/17 05:47:39;;;;;;;3.20;1.40;;;;;;;;;;109642;1256;36797;-35
2022/09/17 05:50:11;;;;;;;3.00;1.30;;;;;;;;;;109368;1255;488517;-35
2022/09/17 05:52:42;;;;;;;3.70;1.60;;;;;;;;;;109945;1254;36375;-35
2022/09/17 05:55:13;;;;;;;2.80;1.30;;;;;;;;;;109955;1254;37165;-35
2022/09/17 05:57:43;;;;;;;3.60;1.20;;;;;;;;;;109921;1254;36526;-36
2022/09/17 06:00:19;;;;;;;3.40;1.40;;;;;;;;;;109998;1254;36700;-36
2022/09/17 06:02:56;;;;;;;2.80;1.30;;;;;;;;;;110034;1254;37096;-36
2022/09/17 06:05:29;;;;;;;3.20;1.40;;;;;;;;;;110024;1254;36201;-36
2022/09/17 06:08:00;;;;;;;3.10;1.20;;;;;;;;;;109956;1254;36218;-36
2022/09/17 06:10:31;;;;;;;3.20;1.30;;;;;;;;;;109956;1254;35395;-36
2022/09/17 06:13:05;;;;;;;3.10;1.20;;;;;;;;;;109974;1254;33827;-36
2022/09/17 06:15:35;;;;;;;3.50;1.20;;;;;;;;;;109938;1254;36693;-32
2022/09/17 06:18:09;;;;;;;2.60;1.00;;;;;;;;;;109959;1254;36572;-32
2022/09/17 06:20:39;;;;;;;4.00;1.60;;;;;;;;;;110013;1254;37105;-32
2022/09/17 06:23:10;;;;;;;2.40;1.10;;;;;;;;;;110032;1254;36342;-32
2022/09/17 06:25:41;;;;;;;2.70;1.20;;;;;;;;;;110005;1254;36172;-32
2022/09/17 06:28:11;;;;;;;3.10;1.10;;;;;;;;;;109903;1254;37160;-32
2022/09/17 06:30:42;;;;;;;3.40;1.20;;;;;;;;;;109901;1255;36259;-32
2022/09/17 06:33:16;;;;;;;3.60;1.30;;;;;;;;;;109941;1255;36320;-35
2022/09/17 06:35:47;;;;;;;2.80;1.10;;;;;;;;;;109855;1255;36639;-36
2022/09/17 06:38:21;;;;;;;2.80;1.30;;;;;;;;;;109922;1254;37014;-36
2022/09/17 06:40:53;;;;;;;2.80;1.10;;;;;;;;;;110047;1254;36214;-36
2022/09/17 06:43:24;;;;;;;2.70;1.10;;;;;;;;;;110028;1254;36211;-35
2022/09/17 06:45:56;;;;;;;3.10;1.20;;;;;;;;;;109992;1254;36587;-35
2022/09/17 06:48:28;;;;;;;2.40;1.10;;;;;;;;;;109968;1254;36589;-36
2022/09/17 06:51:03;;;;;;;2.40;1.10;;;;;;;;;;109952;1255;33579;-36
2022/09/17 06:53:37;;;;;;;2.60;1.10;;;;;;;;;;109933;1254;36221;-36
2022/09/17 06:56:12;;;;;;;2.40;1.20;;;;;;;;;;109961;1255;36677;-36
2022/09/17 06:58:42;;;;;;;2.60;1.10;;;;;;;;;;109972;1254;34292;-35
2022/09/17 07:01:14;;;;;;;2.10;1.10;;;;;;;;;;110077;1254;35627;-36
2022/09/17 07:03:44;;;;;;;3.20;1.00;;;;;;;;;;109969;1254;36229;-36
2022/09/17 07:06:16;;;;;;;3.70;1.10;;;;;;;;;;110028;1254;36748;-36
2022/09/17 07:08:46;;;;;;;3.30;1.00;;;;;;;;;;109906;1254;36498;-36
2022/09/17 07:11:18;;;;;;;3.10;1.00;;;;;;;;;;109948;1255;34708;-36
2022/09/17 07:13:49;;;;;;;3.00;1.10;;;;;;;;;;109894;1256;36294;-36
2022/09/17 07:16:19;;;;;;;3.00;1.10;;;;;;;;;;109926;1255;36533;-36
2022/09/17 07:18:50;;;;;;;2.90;1.10;;;;;;;;;;109884;1254;33709;-36
2022/09/17 07:21:20;;;;;;;2.90;1.20;;;;;;;;;;109980;1254;36281;-35
2022/09/17 07:23:52;;;;;;;3.20;1.20;;;;;;;;;;109712;1256;36604;-35
2022/09/17 07:26:23;;;;;;;3.20;1.30;;;;;;;;;;109734;1256;36251;-35
2022/09/17 07:28:54;;;;;;;2.70;1.10;;;;;;;;;;109676;1256;35914;-35
2022/09/17 07:31:24;;;;;;;3.40;1.20;;;;;;;;;;109721;1256;36238;-36
2022/09/17 07:33:55;;;;;;;2.80;1.20;;;;;;;;;;109693;1256;36864;-36
2022/09/17 07:36:25;;;;;;;2.90;1.30;;;;;;;;;;109715;1256;36833;-36
2022/09/17 07:38:56;;;;;;;2.90;1.30;;;;;;;;;;109694;1256;36409;-36
2022/09/17 07:41:27;;;;;;;3.50;1.30;;;;;;;;;;109740;1256;36616;-36
2022/09/17 07:43:58;;;;;;;2.70;1.10;;;;;;;;;;109715;1256;36623;-36
2022/09/17 07:46:28;;;;;;;3.10;1.30;;;;;;;;;;109741;1256;36242;-33
2022/09/17 07:48:59;;;;;;;3.40;1.10;;;;;;;;;;109693;1256;37022;-33
2022/09/17 07:51:30;;;;;;;2.40;1.10;;;;;;;;;;109714;1256;36948;-33
2022/09/17 07:54:01;;;;;;;4.60;1.30;;;;;;;;;;109718;1256;36300;-33
2022/09/17 07:56:33;;;;;;;3.20;1.40;;;;;;;;;;109731;1256;33706;-32
2022/09/17 07:59:05;;;;;;;3.30;1.20;;;;;;;;;;109709;1256;36218;-32
2022/09/17 08:01:36;;;;;;;3.20;1.10;;;;;;;;;;109737;1256;36189;-32
2022/09/17 08:04:07;;;;;;;2.70;1.10;;;;;;;;;;109754;1256;36671;-32
2022/09/17 08:06:39;;;;;;;2.50;1.00;;;;;;;;;;109722;1256;34965;-32
2022/09/17 08:09:11;;;;;;;2.30;1.10;;;;;;;;;;109671;1256;37460;-32
2022/09/17 08:11:43;;;;;;;2.90;1.20;;;;;;;;;;109729;1256;36858;-32
2022/09/17 08:14:16;;;;;;;3.00;1.20;;;;;;;;;;109704;1256;36212;-32
2022/09/17 08:16:46;;;;;;;3.00;1.30;;;;;;;;;;109711;1256;36716;-32
2022/09/17 08:19:17;;;;;;;3.50;1.30;;;;;;;;;;109719;1256;36614;-32
2022/09/17 08:21:48;;;;;;;3.20;1.10;;;;;;;;;;109472;1258;36784;-32
2022/09/17 08:24:19;;;;;;;2.90;1.00;;;;;;;;;;110141;1251;35001;-32
2022/09/17 08:26:50;;;;;;;2.20;1.10;;;;;;;;;;110187;1251;36218;-32
2022/09/17 08:29:21;;;;;;;2.70;1.20;;;;;;;;;;110160;1251;36709;-32
2022/09/17 08:31:52;;;;;;;4.50;1.50;;;;;;;;;;110217;1250;33958;-32
2022/09/17 08:34:22;;;;;;;3.00;1.30;;;;;;;;;;110224;1249;36197;-32
2022/09/17 08:36:52;;;;;;;3.80;1.20;;;;;;;;;;110189;1250;37358;-35
2022/09/17 08:39:23;;;;;;;5.10;1.40;;;;;;;;;;110213;1249;36256;-35
2022/09/17 08:42:03;;;;;;;3.30;1.40;;;;;;;;;;110180;1250;34837;-35
2022/09/17 08:44:41;;;;;;;3.70;1.50;;;;;;;;;;110204;1250;34775;-36
2022/09/17 08:47:20;;;;;;;4.30;1.50;;;;;;;;;;110217;1250;36890;-35
2022/09/17 08:49:56;;;;;;;4.20;1.50;;;;;;;;;;110207;1250;36655;-35
2022/09/17 08:53:02;;;;;;;3.40;1.50;;;;;;;;;;110341;1250;34740;-34
2022/09/17 08:55:40;;;;;;;4.60;1.50;;;;;;;;;;110149;1250;35555;-35
2022/09/17 08:58:32;;;;;;;4.40;2.10;;;;;;;;;;110209;1250;36601;-35
2022/09/17 09:01:12;;;;;;;3.50;1.60;;;;;;;;;;110207;1249;36683;-35
2022/09/17 09:03:59;;;;;;;4.10;1.80;;;;;;;;;;110230;1250;36479;-35
2022/09/17 09:06:35;;;;;;;3.80;1.50;;;;;;;;;;110227;1249;36250;-32
2022/09/17 09:09:11;;;;;;;5.00;1.80;;;;;;;;;;110203;1250;36584;-35
2022/09/17 09:11:43;;;;;;;3.80;1.50;;;;;;;;;;110115;1250;36176;-35
2022/09/17 09:14:20;;;;;;;3.40;1.60;;;;;;;;;;110182;1249;35103;-34
2022/09/17 09:16:52;;;;;;;3.40;1.70;;;;;;;;;;110300;1249;36704;-35
2022/09/17 09:19:28;;;;;;;3.50;1.50;;;;;;;;;;110250;1250;36651;-34
2022/09/17 09:22:13;;;;;;;4.10;1.80;;;;;;;;;;110229;1249;36643;-35
2022/09/17 09:24:53;;;;;;;4.80;2.10;;;;;;;;;;110300;1251;36284;-35
2022/09/17 09:27:28;;;;;;;3.80;1.70;;;;;;;;;;110329;1250;36304;-35
2022/09/17 09:30:07;;;;;;;4.30;1.60;;;;;;;;;;110350;1250;36770;-34
2022/09/17 09:32:50;;;;;;;4.10;1.90;;;;;;;;;;110250;1249;36860;-35
2022/09/17 09:35:23;;;;;;;3.80;1.80;;;;;;;;;;110280;1250;37103;-35
2022/09/17 09:38:01;;;;;;;3.80;1.60;;;;;;;;;;110268;1250;33756;-33
2022/09/17 09:40:41;;;;;;;3.50;1.70;;;;;;;;;;110237;1250;36227;-33
2022/09/17 09:43:18;;;;;;;3.90;2.00;;;;;;;;;;110224;1249;36189;-33
2022/09/17 09:46:10;;;;;;;3.20;1.60;;;;;;;;;;110353;1249;36287;-33
2022/09/17 09:48:52;;;;;;;4.80;2.20;;;;;;;;;;110332;1249;36623;-33
2022/09/17 09:51:33;;;;;;;3.00;1.80;;;;;;;;;;110304;1250;36731;-33
2022/09/17 09:54:18;;;;;;;4.40;2.00;;;;;;;;;;110282;1250;36855;-33
2022/09/17 09:56:55;;;;;;;4.10;2.00;;;;;;;;;;110263;1249;37199;-33
2022/09/17 09:59:26;;;;;;;3.90;2.00;;;;;;;;;;110288;1250;36200;-33
2022/09/17 10:01:57;;;;;;;4.60;2.20;;;;;;;;;;110266;1250;36559;-33
2022/09/17 10:04:31;;;;;;;3.60;1.90;;;;;;;;;;110338;1249;35030;-33
2022/09/17 10:07:05;;;;;;;4.90;2.10;;;;;;;;;;110350;1250;34228;-33
2022/09/17 10:09:38;;;;;;;4.80;2.00;;;;;;;;;;110339;1249;36243;-33
2022/09/17 10:12:20;;;;;;;3.60;2.20;;;;;;;;;;110309;1249;36627;-33
2022/09/17 10:14:56;;;;;;;4.30;2.10;;;;;;;;;;110260;1249;36909;-33
2022/09/17 10:17:28;;;;;;;3.70;2.10;;;;;;;;;;110279;1249;37037;-33
2022/09/17 10:20:21;;;;;;;4.80;2.10;;;;;;;;;;110283;1249;36357;-32
2022/09/17 10:22:52;;;;;;;3.70;1.90;;;;;;;;;;110244;1249;36323;-33
2022/09/17 10:25:42;;;;;;;4.30;2.00;;;;;;;;;;110326;1249;36191;-33
2022/09/17 10:28:28;;;;;;;5.20;2.00;;;;;;;;;;110337;1250;36693;-33
2022/09/17 10:31:02;;;;;;;4.40;2.20;;;;;;;;;;110355;1249;34753;-33
2022/09/17 10:33:35;;;;;;;4.70;2.30;;;;;;;;;;110262;1249;36616;-33
2022/09/17 10:36:08;;;;;;;4.80;2.30;;;;;;;;;;110275;1249;36302;-33
2022/09/17 10:38:41;;;;;;;5.80;2.40;;;;;;;;;;110314;1249;36349;-33
2022/09/17 10:41:18;;;;;;;5.50;2.80;;;;;;;;;;110286;1249;35763;-33
2022/09/17 10:43:49;;;;;;;6.80;3.60;;;;;;;;;;110295;1249;36747;-33
2022/09/17 10:46:29;;;;;;;9.10;3.30;;;;;;;;;;110333;1250;36335;-33
2022/09/17 10:49:10;;;;;;;7.90;3.50;;;;;;;;;;110303;1250;36354;-33
2022/09/17 10:51:41;;;;;;;6.20;3.70;;;;;;;;;;110359;1250;36704;-33
2022/09/17 10:54:41;;;;;;;6.40;3.30;;;;;;;;;;110273;1249;36626;-33
2022/09/17 10:57:16;;;;;;;8.90;3.70;;;;;;;;;;110268;1249;36709;-33
2022/09/17 11:00:03;;;;;;;6.70;3.20;;;;;;;;;;110264;1249;36799;-33
2022/09/17 11:03:18;;;;;;;6.20;3.30;;;;;;;;;;110289;1250;36604;-33
2022/09/17 11:06:06;;;;;;;5.90;3.10;;;;;;;;;;110297;1251;36773;-33
2022/09/17 11:08:42;;;;;;;6.40;3.00;;;;;;;;;;110208;1250;36882;-33
2022/09/17 11:11:28;;;;;;;7.30;3.10;;;;;;;;;;110335;1249;34804;-33
2022/09/17 11:14:10;;;;;;;7.30;3.10;;;;;;;;;;110287;1249;36342;-33
2022/09/17 11:16:47;;;;;;;6.40;2.70;;;;;;;;;;110274;1249;36247;-33
2022/09/17 11:19:32;;;;;;;6.40;3.10;;;;;;;;;;110274;1250;37346;-33
2022/09/17 11:22:11;;;;;;;5.60;2.60;;;;;;;;;;110311;1250;36768;-33
2022/09/17 11:25:01;;;;;;;4.10;2.20;;;;;;;;;;110270;1249;36736;-33
2022/09/17 11:27:48;;;;;;;4.80;2.40;;;;;;;;;;110354;1249;36850;-33
2022/09/17 11:30:22;;;;;;;4.80;2.10;;;;;;;;;;110341;1249;36573;-33
2022/09/17 11:33:18;;;;;;;6.30;2.30;;;;;;;;;;110352;1250;36505;-33
2022/09/17 11:35:53;;;;;;;5.60;2.20;;;;;;;;;;110231;1249;36263;-35
2022/09/17 11:38:29;;;;;;;4.60;2.10;;;;;;;;;;110273;1251;36263;-35
2022/09/17 11:41:07;;;;;;;5.40;2.30;;;;;;;;;;110269;1249;34873;-35
2022/09/17 11:43:41;;;;;;;4.30;1.50;;;;;;;;;;110288;1249;35099;-35
2022/09/17 11:46:19;;;;;;;3.40;1.70;;;;;;;;;;110298;1249;36830;-35
2022/09/17 11:48:57;;;;;;;4.60;1.70;;;;;;;;;;110342;1251;36670;-35
2022/09/17 11:51:35;;;;;;;4.60;1.50;;;;;;;;;;110341;1250;33578;-35
2022/09/17 11:54:15;;;;;;;3.50;1.50;;;;;;;;;;110348;1249;36738;-35
2022/09/17 11:56:49;;;;;;;4.00;1.50;;;;;;;;;;110244;1250;36345;-35
2022/09/17 11:59:26;;;;;;;4.20;1.70;;;;;;;;;;110290;1249;36675;-35
2022/09/17 12:02:01;;;;;;;3.40;1.50;;;;;;;;;;110288;1250;36303;-35
2022/09/17 12:04:42;;;;;;;4.40;1.80;;;;;;;;;;110268;1249;36211;-35
2022/09/17 12:07:21;;;;;;;3.90;1.80;;;;;;;;;;110412;1250;36774;-34
2022/09/17 12:09:57;;;;;;;6.10;2.10;;;;;;;;;;110323;1250;36726;-35
2022/09/17 12:12:28;;;;;;;4.10;2.00;;;;;;;;;;110339;1250;36297;-35
2022/09/17 12:15:05;;;;;;;5.30;2.20;;;;;;;;;;110328;1250;35403;-35
2022/09/17 12:17:42;;;;;;;3.90;1.90;;;;;;;;;;110214;1250;38343;-35
2022/09/17 12:20:28;;;;;;;4.90;2.50;;;;;;;;;;110258;1249;36715;-35
2022/09/17 12:23:03;;;;;;;5.40;2.50;;;;;;;;;;110250;1249;36877;-35
2022/09/17 12:25:41;;;;;;;4.30;2.20;;;;;;;;;;110228;1249;34065;-35
2022/09/17 12:28:21;;;;;;;5.20;2.50;;;;;;;;;;110338;1250;43179;-35
2022/09/17 12:30:57;;;;;;;4.20;2.10;;;;;;;;;;110302;1251;36294;-35
2022/09/17 12:33:33;;;;;;;4.30;2.20;;;;;;;;;;110318;1249;36834;-35
2022/09/17 12:36:36;;;;;;;4.20;2.30;;;;;;;;;;110274;1249;36681;-36
2022/09/17 12:39:25;;;;;;;5.30;2.60;;;;;;;;;;110381;1248;36621;-33
2022/09/17 12:42:07;;;;;;;5.40;2.40;;;;;;;;;;110401;1248;36806;-35
2022/09/17 12:44:56;;;;;;;4.20;1.90;;;;;;;;;;110341;1248;36670;-35
2022/09/17 12:47:52;;;;;;;5.60;2.40;;;;;;;;;;110295;1248;36928;-34
2022/09/17 12:50:35;;;;;;;4.60;2.10;;;;;;;;;;110333;1248;34439;-35
2022/09/17 12:53:19;;;;;;;4.60;2.00;;;;;;;;;;110378;1248;36902;-35
2022/09/17 12:56:02;;;;;;;4.50;2.10;;;;;;;;;;110379;1248;35719;-35
2022/09/17 12:58:45;;;;;;;3.90;2.00;;;;;;;;;;110377;1248;33761;-35
2022/09/17 13:01:25;;;;;;;4.00;2.20;;;;;;;;;;110381;1248;36295;-35
2022/09/17 13:04:06;;;;;;;3.40;1.70;;;;;;;;;;110351;1248;36776;-33
2022/09/17 13:07:24;;;;;;;4.60;2.20;;;;;;;;;;110339;1248;36444;-33
2022/09/17 13:10:10;;;;;;;4.30;2.00;;;;;;;;;;110391;1247;36752;-33
2022/09/17 13:12:46;;;;;;;4.30;1.90;;;;;;;;;;110393;1248;36694;-35
2022/09/17 13:15:39;;;;;;;4.70;2.10;;;;;;;;;;110373;1247;36968;-35
2022/09/17 13:18:20;;;;;;;3.40;1.90;;;;;;;;;;110395;1247;36767;-35
2022/09/17 13:21:02;;;;;;;4.50;2.00;;;;;;;;;;109829;1248;35035;-34
2022/09/17 13:23:42;;;;;;;5.80;2.20;;;;;;;;;;109961;1253;36281;-34
2022/09/17 13:26:17;;;;;;;4.70;2.10;;;;;;;;;;109991;1253;36662;-34
2022/09/17 13:28:50;;;;;;;5.30;2.10;;;;;;;;;;109921;1253;36249;-35
2022/09/17 13:31:43;;;;;;;4.00;1.90;;;;;;;;;;109932;1254;36974;-34
2022/09/17 13:34:31;;;;;;;4.60;2.10;;;;;;;;;;110004;1253;36812;-35
2022/09/17 13:37:05;;;;;;;5.40;2.40;;;;;;;;;;109854;1254;35409;-35
2022/09/17 13:39:42;;;;;;;5.30;2.10;;;;;;;;;;109961;1254;36424;-34
2022/09/17 13:42:32;;;;;;;4.60;2.10;;;;;;;;;;108880;1254;271195;-34
2022/09/17 13:45:15;;;;;;;4.20;1.90;;;;;;;;;;109090;1260;33147;-34
2022/09/17 13:47:56;;;;;;;4.00;1.80;;;;;;;;;;109210;1260;34290;-34
2022/09/17 13:50:38;;;;;;;3.60;2.00;;;;;;;;;;109116;1260;438829;-34
2022/09/17 13:53:25;;;;;;;3.60;1.90;;;;;;;;;;109419;1258;36300;-34
2022/09/17 13:56:02;;;;;;;3.70;1.90;;;;;;;;;;109219;1260;36007;-33
2022/09/17 13:58:37;;;;;;;4.20;2.00;;;;;;;;;;109147;1259;35994;-34
2022/09/17 14:01:13;;;;;;;3.50;1.90;;;;;;;;;;109166;1260;33505;-34
2022/09/17 14:04:01;;;;;;;3.70;1.70;;;;;;;;;;109176;1260;36464;-34
2022/09/17 14:06:59;;;;;;;3.40;1.70;;;;;;;;;;109098;1260;34014;-34
2022/09/17 14:09:54;;;;;;;4.20;1.80;;;;;;;;;;109109;1259;35715;-34
2022/09/17 14:12:54;;;;;;;3.30;1.80;;;;;;;;;;109290;1259;34292;-34
2022/09/17 14:16:01;;;;;;;3.40;2.00;;;;;;;;;;109237;1260;34576;-34
2022/09/17 14:18:58;;;;;;;3.50;1.70;;;;;;;;;;109203;1259;35639;-34
2022/09/17 14:21:33;;;;;;;3.60;1.90;;;;;;;;;;109178;1261;35541;-34
2022/09/17 14:24:22;;;;;;;3.10;1.50;;;;;;;;;;109161;1260;34419;-34
2022/09/17 14:27:12;;;;;;;3.30;1.40;;;;;;;;;;109154;1260;33354;-34
2022/09/17 14:30:01;;;;;;;3.50;1.70;;;;;;;;;;109240;1259;33165;-34
2022/09/17 14:32:48;;;;;;;3.60;1.60;;;;;;;;;;109211;1259;35616;-34
2022/09/17 14:35:26;;;;;;;3.20;1.40;;;;;;;;;;109312;1259;35832;-34
2022/09/17 14:38:05;;;;;;;3.20;1.40;;;;;;;;;;109667;1257;33186;-34
2022/09/17 14:40:45;;;;;;;4.00;1.60;;;;;;;;;;109495;1259;36001;-34
2022/09/17 14:43:27;;;;;;;3.30;1.80;;;;;;;;;;109557;1259;35988;-34
2022/09/17 14:45:59;;;;;;;3.70;1.70;;;;;;;;;;109525;1260;36066;-34
2022/09/17 14:48:34;;;;;;;3.00;1.30;;;;;;;;;;109490;1257;35402;-33
2022/09/17 14:51:29;;;;;;;3.90;1.60;;;;;;;;;;109719;1257;35962;-34
2022/09/17 14:54:17;;;;;;;4.10;1.70;;;;;;;;;;109687;1257;35640;-34
2022/09/17 14:56:54;;;;;;;2.80;1.50;;;;;;;;;;109736;1257;35832;-34
2022/09/17 14:59:52;;;;;;;3.00;1.40;;;;;;;;;;109644;1257;35163;-34
2022/09/17 15:02:36;;;;;;;3.30;1.60;;;;;;;;;;109529;1259;35861;-34
2022/09/17 15:05:27;;;;;;;3.00;1.60;;;;;;;;;;109485;1259;35972;-34
2022/09/17 15:08:20;;;;;;;3.20;1.60;;;;;;;;;;109521;1259;35703;-34
2022/09/17 15:10:57;;;;;;;3.10;1.60;;;;;;;;;;109627;1257;35848;-34
2022/09/17 15:13:32;;;;;;;3.20;1.60;;;;;;;;;;109713;1257;33884;-34
2022/09/17 15:16:11;;;;;;;3.00;1.70;;;;;;;;;;109673;1257;35762;-34
2022/09/17 15:18:52;;;;;;;3.60;1.60;;;;;;;;;;109699;1257;36076;-34
2022/09/17 15:21:36;;;;;;;3.80;1.70;;;;;;;;;;109462;1260;36110;-33
2022/09/17 15:24:19;;;;;;;3.60;1.50;;;;;;;;;;109486;1259;36268;-34
2022/09/17 15:26:56;;;;;;;3.60;1.70;;;;;;;;;;109460;1257;35374;-34
2022/09/17 15:29:32;;;;;;;3.40;1.70;;;;;;;;;;109499;1257;34110;-34
2022/09/17 15:32:08;;;;;;;3.20;1.70;;;;;;;;;;109245;1260;35953;-34
2022/09/17 15:34:40;;;;;;;3.50;1.70;;;;;;;;;;109693;1257;35551;-34
2022/09/17 15:37:26;;;;;;;3.60;1.70;;;;;;;;;;109271;1257;36191;-34
2022/09/17 15:39:58;;;;;;;3.70;1.80;;;;;;;;;;109650;1257;35424;-34
2022/09/17 15:42:32;;;;;;;3.60;1.70;;;;;;;;;;109490;1259;33395;-34
2022/09/17 15:45:20;;;;;;;3.70;2.00;;;;;;;;;;109488;1259;36534;-34
2022/09/17 15:47:56;;;;;;;4.30;2.10;;;;;;;;;;109491;1259;35855;-34
2022/09/17 15:50:33;;;;;;;3.00;1.60;;;;;;;;;;109527;1258;36279;-34
2022/09/17 15:53:23;;;;;;;3.60;2.00;;;;;;;;;;109724;1257;33925;-34
2022/09/17 15:56:11;;;;;;;4.00;2.10;;;;;;;;;;109672;1257;35303;-34
2022/09/17 15:59:00;;;;;;;4.50;2.10;;;;;;;;;;109689;1257;34115;-34
2022/09/17 16:01:56;;;;;;;4.90;2.40;;;;;;;;;;109498;1257;33438;-34
2022/09/17 16:04:33;;;;;;;4.20;2.50;;;;;;;;;;109493;1258;35466;-34
2022/09/17 16:07:30;;;;;;;4.90;2.60;;;;;;;;;;109484;1260;36268;-34
2022/09/17 16:10:03;;;;;;;4.20;2.60;;;;;;;;;;109492;1259;35737;-34
2022/09/17 16:12:37;;;;;;;3.80;2.30;;;;;;;;;;109655;1257;36132;-34
2022/09/17 16:15:12;;;;;;;4.30;2.60;;;;;;;;;;109675;1257;36238;-34
2022/09/17 16:17:49;;;;;;;4.00;2.50;;;;;;;;;;109718;1257;36059;-34
2022/09/17 16:20:25;;;;;;;4.30;2.70;;;;;;;;;;109694;1257;36586;-34
2022/09/17 16:22:58;;;;;;;3.90;2.60;;;;;;;;;;109621;1257;40050;-31
2022/09/17 16:25:33;;;;;;;5.50;2.60;;;;;;;;;;109625;1257;36209;-31
2022/09/17 16:28:12;;;;;;;6.50;3.60;;;;;;;;;;109658;1257;36482;-31
2022/09/17 16:30:48;;;;;;;5.60;3.40;;;;;;;;;;109715;1257;36057;-31
2022/09/17 16:33:21;;;;;;;8.30;3.20;;;;;;;;;;109673;1257;36033;-31
2022/09/17 16:35:58;;;;;;;7.30;3.30;;;;;;;;;;109712;1257;36379;-31
2022/09/17 16:38:30;;;;;;;6.00;3.20;;;;;;;;;;109759;1256;36001;-31
2022/09/17 16:41:06;;;;;;;6.30;2.80;;;;;;;;;;109667;1256;36725;-31
2022/09/17 16:43:40;;;;;;;5.20;3.00;;;;;;;;;;109761;1256;35599;-31
2022/09/17 16:46:14;;;;;;;5.10;3.10;;;;;;;;;;109689;1257;36637;-31
2022/09/17 16:48:50;;;;;;;5.50;3.50;;;;;;;;;;109707;1256;35901;-31
2022/09/17 16:51:23;;;;;;;5.80;2.90;;;;;;;;;;109701;1256;36177;-31
2022/09/17 16:53:57;;;;;;;6.60;3.40;;;;;;;;;;109733;1257;36837;-31
2022/09/17 16:56:30;;;;;;;5.40;2.80;;;;;;;;;;109754;1256;34492;-31
2022/09/17 16:59:02;;;;;;;6.90;3.20;;;;;;;;;;109712;1256;36113;-31
2022/09/17 17:01:37;;;;;;;6.50;2.90;;;;;;;;;;109692;1256;34457;-31
2022/09/17 17:04:10;;;;;;;5.50;3.10;;;;;;;;;;109731;1256;34225;-31
2022/09/17 17:06:42;;;;;;;4.90;3.50;;;;;;;;;;109764;1256;34828;-31
2022/09/17 17:09:17;;;;;;;7.40;3.50;;;;;;;;;;109763;1257;35689;-31
2022/09/17 17:11:50;;;;;;;5.10;3.20;;;;;;;;;;109728;1256;36091;-31
2022/09/17 17:14:25;;;;;;;6.20;3.20;;;;;;;;;;109743;1256;38009;-31
2022/09/17 17:16:57;;;;;;;6.10;3.10;;;;;;;;;;109712;1256;35727;-31
2022/09/17 17:19:30;;;;;;;5.00;2.90;;;;;;;;;;109713;1256;36082;-31
2022/09/17 17:22:02;;;;;;;5.90;2.90;;;;;;;;;;109658;1257;35762;-31
2022/09/17 17:24:35;;;;;;;7.50;3.10;;;;;;;;;;109713;1256;36210;-31
2022/09/17 17:27:10;;;;;;;6.00;3.40;;;;;;;;;;109710;1256;35568;-31
2022/09/17 17:29:42;;;;;;;6.00;3.20;;;;;;;;;;109744;1256;36024;-31
2022/09/17 17:32:16;;;;;;;6.80;3.10;;;;;;;;;;109726;1257;34390;-31
2022/09/17 17:34:49;;;;;;;5.40;3.10;;;;;;;;;;109717;1256;36120;-31
2022/09/17 17:37:22;;;;;;;;;;;;;;;;;;109725;1256;36609;-31
2022/09/17 17:39:54;;;;;;;4.80;3.00;;;;;;;;;;109759;1256;35684;-31
2022/09/17 17:42:34;;;;;;;5.90;3.40;;;;;;;;;;109718;1256;36623;-31
2022/09/17 17:45:09;;;;;;;5.10;3.40;;;;;;;;;;109715;1256;35936;-31
2022/09/17 17:47:41;;;;;;;5.40;3.20;;;;;;;;;;109739;1256;33264;-31
2022/09/17 17:50:15;;;;;;;5.50;2.90;;;;;;;;;;109722;1256;35963;-31
2022/09/17 17:52:48;;;;;;;5.40;3.00;;;;;;;;;;109703;1256;36145;-31
2022/09/17 17:55:21;;;;;;;5.70;3.30;;;;;;;;;;109706;1256;35720;-31
2022/09/17 17:58:00;;;;;;;6.30;3.20;;;;;;;;;;109731;1256;35736;-31
2022/09/17 18:00:32;;;;;;;5.10;3.00;;;;;;;;;;109688;1256;35995;-31
2022/09/17 18:03:05;;;;;;;6.20;3.30;;;;;;;;;;109693;1256;36049;-31